Terminal Aerodrome Forecast
Issued by NWS Jacksonville, FL

Home | Current Version | Previous Version | Text Only | Print | Product List | Glossary On
Versions: 1 2 3 4 5 6 7 8 9 10 11 12 13 14 15 16 17 18 19 20 21 22 23 24 25
000
FTUS42 KJAX 172354
TAFGNV
TAF
KGNV 172354Z 1800/1824 11003KT P6SM VCSH SCT040 BKN120
     FM180600 00000KT P6SM VCSH SCT004 BKN070 BKN120
     FM181000 00000KT 5SM BR BKN004
      TEMPO 1810/1812 OVC002
     FM181400 24005KT P6SM SCT007 BKN015 BKN120
     FM181700 27008KT P6SM VCSH SCT025 SCT150 BKN250=

USA.gov is the U.S. government's official web portal to all federal, state and local government web resources and services.